Time;durP1;ratioP1;P1;durP2;ratioP2;P2;SDS_P1;SDS_P2;PMS_P1;PMS_P2;Temp;Humidity;BMP_temperature;BMP_pressure;BME280_temperature;BME280_humidity;BME280_pressure;Samples;Min_cycle;Max_cycle;Signal;HPM_P1;HPM_P2
2021/03/04 00:00:28;;;;;;;134.77;76.75;;;6.40;88.40;;;;;;4981417;28;20042;-72
2021/03/04 00:02:54;;;;;;;209.45;116.30;;;6.40;88.40;;;;;;4978811;28;20018;-72
2021/03/04 00:05:20;;;;;;;192.43;106.53;;;6.50;87.00;;;;;;4979611;28;20397;-67
2021/03/04 00:07:46;;;;;;;160.60;92.03;;;6.40;86.70;;;;;;4979994;28;20493;-72
2021/03/04 00:10:16;;;;;;;151.40;85.70;;;6.30;87.20;;;;;;4980513;28;20026;-70
2021/03/04 00:12:43;;;;;;;148.95;86.22;;;6.20;87.50;;;;;;4980416;28;20095;-70
2021/03/04 00:15:11;;;;;;;130.05;76.82;;;6.30;87.00;;;;;;4979876;28;20073;-68
2021/03/04 00:17:37;;;;;;;125.43;75.55;;;6.30;87.20;;;;;;4994743;28;20042;-68
2021/03/04 00:20:08;;;;;;;129.73;75.32;;;6.10;87.00;;;;;;4980433;28;20381;-69
2021/03/04 00:22:35;;;;;;;144.95;81.22;;;6.10;87.40;;;;;;4979511;28;20023;-66
2021/03/04 00:25:05;;;;;;;140.23;81.85;;;6.00;87.70;;;;;;4979364;28;20023;-67
2021/03/04 00:27:31;;;;;;;168.27;95.25;;;6.10;88.40;;;;;;4979153;28;20490;-66
2021/03/04 00:30:01;;;;;;;158.05;91.93;;;6.00;88.60;;;;;;4978257;28;20026;-73
2021/03/04 00:32:27;;;;;;;190.02;106.90;;;6.00;88.80;;;;;;4978081;28;20110;-68
2021/03/04 00:34:53;;;;;;;221.68;119.10;;;6.00;88.70;;;;;;4979118;28;20165;-68
2021/03/04 00:37:19;;;;;;;217.23;117.97;;;5.70;89.10;;;;;;4975923;28;20081;-68
2021/03/04 00:39:45;;;;;;;210.50;114.05;;;5.20;90.10;;;;;;4980015;28;20027;-68
2021/03/04 00:42:11;;;;;;;205.43;116.25;;;5.10;90.60;;;;;;4979553;28;20019;-66
2021/03/04 00:44:37;;;;;;;198.82;113.47;;;4.90;91.00;;;;;;4979579;28;20500;-68
2021/03/04 00:47:04;;;;;;;197.55;114.18;;;4.90;91.10;;;;;;4978853;28;20489;-72
2021/03/04 00:49:30;;;;;;;208.95;116.40;;;5.00;91.10;;;;;;4980569;28;20023;-67
2021/03/04 00:51:56;;;;;;;188.75;112.60;;;4.80;91.30;;;;;;4979157;28;20027;-71
2021/03/04 00:54:22;;;;;;;191.90;110.35;;;5.00;91.20;;;;;;4978819;28;20027;-66
2021/03/04 00:56:48;;;;;;;190.15;109.90;;;4.80;91.40;;;;;;4978878;28;20022;-71
2021/03/04 00:59:14;;;;;;;194.88;111.88;;;4.80;91.40;;;;;;4979936;28;20085;-69
2021/03/04 01:01:40;;;;;;;196.00;114.22;;;4.90;91.50;;;;;;4979073;28;20121;-70
2021/03/04 01:04:06;;;;;;;197.23;116.05;;;4.90;91.10;;;;;;4980182;28;20031;-72
2021/03/04 01:06:32;;;;;;;208.73;120.28;;;5.00;91.10;;;;;;4979152;28;20038;-72
2021/03/04 01:08:58;;;;;;;208.02;119.68;;;5.00;91.00;;;;;;4977035;28;20374;-66
2021/03/04 01:11:24;;;;;;;207.60;120.22;;;5.00;90.60;;;;;;4978801;28;20528;-72
2021/03/04 01:13:50;;;;;;;217.63;123.57;;;4.90;90.70;;;;;;4978514;28;20039;-68
2021/03/04 01:16:16;;;;;;;211.23;118.93;;;4.70;90.90;;;;;;4978662;28;20027;-72
2021/03/04 01:18:42;;;;;;;227.60;124.18;;;4.50;91.40;;;;;;4977653;28;20019;-69
2021/03/04 01:21:08;;;;;;;221.25;120.05;;;4.40;91.60;;;;;;4980482;28;20023;-68
2021/03/04 01:23:34;;;;;;;229.35;125.95;;;4.40;91.80;;;;;;4978365;28;20019;-68
2021/03/04 01:26:00;;;;;;;241.40;130.70;;;4.40;91.70;;;;;;4980468;28;20380;-66
2021/03/04 01:28:26;;;;;;;214.20;120.45;;;4.30;91.90;;;;;;4978157;28;20098;-69
2021/03/04 01:30:52;;;;;;;202.32;117.70;;;4.40;91.80;;;;;;4979864;28;20027;-68
2021/03/04 01:33:19;;;;;;;204.68;115.68;;;4.50;91.70;;;;;;4979157;28;20054;-67
2021/03/04 01:35:46;;;;;;;199.52;114.15;;;4.60;91.60;;;;;;4977827;28;20524;-72
2021/03/04 01:38:12;;;;;;;202.70;114.60;;;4.60;91.60;;;;;;4979495;28;20023;-68
2021/03/04 01:40:39;;;;;;;205.48;115.07;;;4.70;91.40;;;;;;4977786;28;20033;-68
2021/03/04 01:43:05;;;;;;;204.13;108.50;;;4.60;91.50;;;;;;4980404;28;20019;-67
2021/03/04 01:45:31;;;;;;;182.02;100.47;;;4.70;91.70;;;;;;4977399;28;20043;-68
2021/03/04 01:47:57;;;;;;;172.93;96.88;;;4.60;91.60;;;;;;4978809;28;20023;-72
2021/03/04 01:50:25;;;;;;;162.40;93.20;;;4.60;91.70;;;;;;4977899;28;20110;-72
2021/03/04 01:52:52;;;;;;;171.55;98.80;;;4.50;91.90;;;;;;4977667;28;20031;-68
2021/03/04 01:55:19;;;;;;;184.05;102.95;;;4.40;92.00;;;;;;4979737;28;20388;-72
2021/03/04 01:57:47;;;;;;;179.73;98.00;;;4.40;92.10;;;;;;4979839;28;20014;-68
2021/03/04 02:00:15;;;;;;;189.95;99.22;;;4.50;92.00;;;;;;4979289;28;20027;-68
2021/03/04 02:02:41;;;;;;;182.32;99.97;;;4.50;91.90;;;;;;4982134;28;20492;-71
2021/03/04 02:05:16;;;;;;;178.43;100.03;;;4.50;91.70;;;;;;4981358;28;20080;-69
2021/03/04 02:08:30;;;;;;;180.77;97.88;;;4.60;91.90;;;;;;4981249;28;20023;-72
2021/03/04 02:11:06;;;;;;;164.18;93.22;;;4.60;91.60;;;;;;4981423;28;20062;-72
2021/03/04 02:13:47;;;;;;;169.55;92.22;;;4.50;91.90;;;;;;4980942;28;20026;-72
2021/03/04 02:16:16;;;;;;;163.30;87.90;;;4.50;91.90;;;;;;4982966;28;20081;-73
2021/03/04 02:18:48;;;;;;;171.82;92.60;;;4.50;91.60;;;;;;4982352;28;20027;-72
2021/03/04 02:21:52;;;;;;;161.55;87.95;;;4.50;91.70;;;;;;4982365;28;20469;-69
2021/03/04 02:24:30;;;;;;;144.25;79.18;;;4.50;91.60;;;;;;4978510;28;20107;-69
2021/03/04 02:27:02;;;;;;;144.57;77.50;;;4.40;91.80;;;;;;4979132;28;20043;-71
2021/03/04 02:29:51;;;;;;;146.73;80.55;;;4.30;91.90;;;;;;4980433;28;20027;-72
2021/03/04 02:32:25;;;;;;;145.00;77.50;;;4.20;92.10;;;;;;4981013;28;20027;-72
2021/03/04 02:34:57;;;;;;;139.75;77.53;;;4.20;92.40;;;;;;4982999;28;20026;-72
2021/03/04 02:37:25;;;;;;;148.43;80.63;;;4.20;92.30;;;;;;4980228;28;20027;-72
2021/03/04 02:39:54;;;;;;;146.95;76.60;;;4.20;92.40;;;;;;4982937;28;20089;-66
2021/03/04 02:42:24;;;;;;;129.75;70.15;;;4.10;92.90;;;;;;4981667;28;20372;-68
2021/03/04 02:44:54;;;;;;;139.75;77.40;;;;;;;;;;4979257;28;20077;-71
2021/03/04 02:47:21;;;;;;;137.32;76.50;;;4.00;92.60;;;;;;4982991;28;20468;-72
2021/03/04 02:49:48;;;;;;;138.50;76.75;;;4.10;92.60;;;;;;4982453;28;20079;-67
2021/03/04 02:52:17;;;;;;;139.02;76.78;;;4.10;92.70;;;;;;4981337;28;20023;-72
2021/03/04 02:54:43;;;;;;;149.55;81.97;;;4.00;92.80;;;;;;4981823;28;20019;-69
2021/03/04 02:57:11;;;;;;;147.85;80.25;;;3.90;92.90;;;;;;4981418;28;20099;-68
2021/03/04 02:59:42;;;;;;;147.10;77.72;;;3.80;93.10;;;;;;4979871;28;20150;-72
2021/03/04 03:02:10;;;;;;;136.63;77.47;;;3.80;93.20;;;;;;4981263;28;20419;-71
2021/03/04 03:04:39;;;;;;;128.38;70.03;;;3.70;93.30;;;;;;4982545;28;20022;-72
2021/03/04 03:07:07;;;;;;;119.10;64.30;;;3.60;93.70;;;;;;4981736;28;20023;-71
2021/03/04 03:09:34;;;;;;;101.68;57.17;;;3.60;93.90;;;;;;4982153;28;20026;-71
2021/03/04 03:12:01;;;;;;;104.68;56.72;;;3.60;93.90;;;;;;4980878;28;20030;-66
2021/03/04 03:14:29;;;;;;;83.32;49.45;;;3.50;94.10;;;;;;4981068;28;20057;-71
2021/03/04 03:16:58;;;;;;;84.47;49.47;;;3.50;94.10;;;;;;4979480;28;20030;-71
2021/03/04 03:19:24;;;;;;;83.82;47.90;;;3.50;94.10;;;;;;4980332;28;20441;-71
2021/03/04 03:21:50;;;;;;;80.70;47.15;;;3.40;94.20;;;;;;4981160;28;20022;-71
2021/03/04 03:24:16;;;;;;;82.00;46.95;;;3.60;94.10;;;;;;4981003;28;20492;-72
2021/03/04 03:26:42;;;;;;;95.40;54.70;;;3.60;94.10;;;;;;4980096;28;20523;-72
2021/03/04 03:29:09;;;;;;;89.78;50.80;;;3.60;94.10;;;;;;4981553;28;20026;-69
2021/03/04 03:31:36;;;;;;;76.70;45.30;;;3.80;93.80;;;;;;4981940;28;20034;-66
2021/03/04 03:34:04;;;;;;;79.80;47.88;;;3.80;93.70;;;;;;4982900;28;20094;-72
2021/03/04 03:36:33;;;;;;;85.93;49.92;;;3.80;93.60;;;;;;4982007;28;20022;-70
2021/03/04 03:39:02;;;;;;;87.53;51.42;;;3.90;93.60;;;;;;4980511;28;20023;-68
2021/03/04 03:41:29;;;;;;;89.40;52.90;;;3.90;93.50;;;;;;4981320;28;20019;-72
2021/03/04 03:43:55;;;;;;;88.47;51.92;;;3.90;93.30;;;;;;4980252;28;20026;-67
2021/03/04 03:46:23;;;;;;;88.88;52.65;;;3.70;93.30;;;;;;4977778;28;20567;-68
2021/03/04 03:48:50;;;;;;;89.65;50.95;;;3.60;93.40;;;;;;4978848;28;20018;-67
2021/03/04 03:51:17;;;;;;;88.68;51.55;;;3.60;93.70;;;;;;4979871;28;20385;-69
2021/03/04 03:53:44;;;;;;;90.20;52.28;;;3.70;93.90;;;;;;4980333;28;20006;-71
2021/03/04 03:56:12;;;;;;;86.72;51.88;;;3.80;93.60;;;;;;4980783;28;20034;-69
2021/03/04 03:58:39;;;;;;;86.97;51.95;;;3.80;93.40;;;;;;4981835;28;20038;-71
2021/03/04 04:01:06;;;;;;;93.28;55.92;;;3.90;93.40;;;;;;4981605;28;20025;-70
2021/03/04 04:03:33;;;;;;;98.85;54.75;;;3.80;93.30;;;;;;4980782;28;20027;-67
2021/03/04 04:05:59;;;;;;;86.35;52.17;;;3.80;93.30;;;;;;4980390;28;20031;-73
2021/03/04 04:08:28;;;;;;;94.20;54.03;;;3.80;93.30;;;;;;4978065;28;20031;-71
2021/03/04 04:10:54;;;;;;;87.40;53.25;;;3.80;93.30;;;;;;4979975;28;20503;-69
2021/03/04 04:13:20;;;;;;;91.15;54.20;;;3.90;93.40;;;;;;4978363;28;20023;-67
2021/03/04 04:15:46;;;;;;;87.50;50.92;;;3.80;93.20;;;;;;4982099;28;20034;-72
2021/03/04 04:18:13;;;;;;;100.93;57.47;;;3.90;92.70;;;;;;4982669;28;20034;-72
2021/03/04 04:20:39;;;;;;;98.65;58.95;;;3.90;92.80;;;;;;4984005;28;20070;-72
2021/03/04 04:23:06;;;;;;;94.45;56.25;;;4.00;92.80;;;;;;4982137;28;20026;-67
2021/03/04 04:25:42;;;;;;;91.93;54.58;;;4.00;92.80;;;;;;4980566;28;20026;-67
2021/03/04 04:28:08;;;;;;;87.53;49.88;;;4.00;92.60;;;;;;4981990;28;20007;-69
2021/03/04 04:30:34;;;;;;;86.45;49.33;;;4.10;92.60;;;;;;4982619;28;20019;-70
2021/03/04 04:33:00;;;;;;;91.45;50.65;;;4.10;92.70;;;;;;4978838;28;20026;-67
2021/03/04 04:35:26;;;;;;;84.18;50.97;;;4.20;92.60;;;;;;4983636;28;20023;-68
2021/03/04 04:37:52;;;;;;;96.72;57.30;;;4.20;92.60;;;;;;4979330;28;20027;-72
2021/03/04 04:40:21;;;;;;;104.45;60.75;;;4.10;92.40;;;;;;4982826;28;20027;-73
2021/03/04 04:42:47;;;;;;;109.40;63.75;;;4.00;92.30;;;;;;4981857;28;20023;-69
2021/03/04 04:45:13;;;;;;;100.97;57.75;;;4.00;92.50;;;;;;4983226;28;20054;-73
2021/03/04 04:47:39;;;;;;;94.13;56.92;;;3.90;92.70;;;;;;4983311;28;20458;-73
2021/03/04 04:50:05;;;;;;;93.07;56.22;;;3.90;92.50;;;;;;4982998;28;20035;-73
2021/03/04 04:52:31;;;;;;;94.03;54.75;;;3.90;93.00;;;;;;4982683;28;20030;-69
2021/03/04 04:54:57;;;;;;;92.40;52.95;;;3.90;92.90;;;;;;4983038;28;20018;-69
2021/03/04 04:57:25;;;;;;;86.95;51.97;;;3.90;92.90;;;;;;4982694;28;20023;-72
2021/03/04 04:59:51;;;;;;;85.72;47.72;;;3.90;92.70;;;;;;4982885;28;20078;-67
2021/03/04 05:02:17;;;;;;;81.22;46.95;;;3.80;92.80;;;;;;4983530;28;20046;-73
2021/03/04 05:04:43;;;;;;;78.35;45.53;;;3.70;92.90;;;;;;4981427;28;20038;-73
2021/03/04 05:07:09;;;;;;;81.22;43.83;;;3.80;92.80;;;;;;4983123;28;20019;-73
2021/03/04 05:09:35;;;;;;;81.45;44.03;;;3.80;92.80;;;;;;4984140;28;20030;-71
2021/03/04 05:12:00;;;;;;;77.68;45.67;;;3.80;92.70;;;;;;4982930;28;20027;-68
2021/03/04 05:14:26;;;;;;;76.65;44.63;;;3.80;92.70;;;;;;4982848;28;20029;-73
2021/03/04 05:16:52;;;;;;;73.85;43.15;;;3.80;92.80;;;;;;4982957;28;20476;-73
2021/03/04 05:19:18;;;;;;;76.40;43.97;;;3.80;92.80;;;;;;4982556;28;20023;-69
2021/03/04 05:21:44;;;;;;;79.53;45.53;;;3.80;92.80;;;;;;4983454;28;20199;-73
2021/03/04 05:24:11;;;;;;;84.78;45.53;;;3.80;92.80;;;;;;4982914;28;20086;-72
2021/03/04 05:26:38;;;;;;;80.38;45.20;;;3.90;92.90;;;;;;4984317;28;20041;-73
2021/03/04 05:29:04;;;;;;;69.53;41.80;;;3.90;92.80;;;;;;4982691;28;20026;-69
2021/03/04 05:31:31;;;;;;;68.20;39.75;;;4.00;92.60;;;;;;4982946;28;20023;-68
2021/03/04 05:33:57;;;;;;;68.40;38.80;;;4.00;92.40;;;;;;4981388;28;20010;-72
2021/03/04 05:36:24;;;;;;;64.78;39.30;;;4.10;92.50;;;;;;4986802;28;20015;-73
2021/03/04 05:38:49;;;;;;;68.80;38.72;;;4.10;92.60;;;;;;4986456;28;20014;-69
2021/03/04 05:41:21;;;;;;;73.25;43.28;;;4.10;92.70;;;;;;4984681;28;20019;-69
2021/03/04 05:43:47;;;;;;;71.82;41.67;;;4.00;92.50;;;;;;4986252;28;20074;-73
2021/03/04 05:46:14;;;;;;;68.85;40.78;;;4.00;92.60;;;;;;4985185;28;20050;-73
2021/03/04 05:48:44;;;;;;;72.28;42.08;;;4.00;92.90;;;;;;4986379;28;20373;-67
2021/03/04 05:51:14;;;;;;;67.18;40.40;;;4.00;92.70;;;;;;4987889;28;20476;-70
2021/03/04 05:53:46;;;;;;;68.90;40.05;;;4.10;92.80;;;;;;4986652;28;20417;-69
2021/03/04 05:56:15;;;;;;;66.43;40.85;;;4.10;92.40;;;;;;4985902;28;20031;-67
2021/03/04 05:58:46;;;;;;;67.93;41.63;;;4.10;92.70;;;;;;4986990;28;20026;-70
2021/03/04 06:01:13;;;;;;;68.18;41.65;;;4.00;92.80;;;;;;4985435;28;20019;-66
2021/03/04 06:03:43;;;;;;;73.90;43.17;;;4.00;92.90;;;;;;4984962;28;20027;-73
2021/03/04 06:06:09;;;;;;;78.28;44.45;;;4.10;93.00;;;;;;4984860;28;20035;-69
2021/03/04 06:08:36;;;;;;;73.18;43.63;;;4.10;93.00;;;;;;4981847;28;20373;-69
2021/03/04 06:11:03;;;;;;;77.38;44.30;;;4.30;92.90;;;;;;4984659;28;20027;-73
2021/03/04 06:13:30;;;;;;;86.13;46.63;;;4.40;92.70;;;;;;4984978;28;20026;-71
2021/03/04 06:15:58;;;;;;;97.82;50.60;;;4.50;92.20;;;;;;4986157;28;20077;-67
2021/03/04 06:18:24;;;;;;;102.78;52.67;;;4.50;91.90;;;;;;4984443;28;20007;-67
2021/03/04 06:20:50;;;;;;;119.60;69.60;;;4.60;91.80;;;;;;4986542;28;20010;-71
2021/03/04 06:23:16;;;;;;;119.88;66.70;;;4.70;91.50;;;;;;4984237;28;20378;-68
2021/03/04 06:25:48;;;;;;;128.63;69.50;;;4.80;91.70;;;;;;4984809;28;20026;-73
2021/03/04 06:28:14;;;;;;;133.25;70.07;;;4.90;91.50;;;;;;4984812;28;20026;-74
2021/03/04 06:30:42;;;;;;;135.57;73.25;;;4.90;91.40;;;;;;4983207;28;20109;-67
2021/03/04 06:33:09;;;;;;;121.03;68.38;;;5.00;91.50;;;;;;4978033;28;20030;-67
2021/03/04 06:35:40;;;;;;;123.28;66.43;;;5.00;91.10;;;;;;4977288;28;20026;-68
2021/03/04 06:38:33;;;;;;;125.82;69.43;;;5.10;90.90;;;;;;4975968;28;20125;-65
2021/03/04 06:40:59;;;;;;;153.80;81.13;;;5.20;91.20;;;;;;4970995;28;20039;-67
2021/03/04 06:43:30;;;;;;;219.90;99.90;;;5.30;91.00;;;;;;4966804;28;20030;-69
2021/03/04 06:46:06;;;;;;;172.35;84.28;;;5.40;90.90;;;;;;4968440;28;20047;-67
2021/03/04 06:48:32;;;;;;;169.55;88.10;;;5.50;90.40;;;;;;4968529;28;20098;-69
2021/03/04 06:51:03;;;;;;;154.02;84.18;;;5.60;91.60;;;;;;4968187;28;20098;-68
2021/03/04 06:53:30;;;;;;;151.80;80.45;;;5.60;92.00;;;;;;4968816;28;20022;-69
2021/03/04 06:56:05;;;;;;;168.90;85.90;;;5.70;91.60;;;;;;4968180;28;20109;-69
2021/03/04 06:58:39;;;;;;;135.45;76.20;;;5.80;91.90;;;;;;4962677;28;20034;-65
2021/03/04 07:01:08;;;;;;;110.40;65.35;;;6.00;91.40;;;;;;4960773;28;20031;-72
2021/03/04 07:03:38;;;;;;;81.85;50.28;;;6.00;91.10;;;;;;4960613;28;20117;-67
2021/03/04 07:06:05;;;;;;;100.43;56.35;;;6.00;92.20;;;;;;4962766;29;20015;-69
2021/03/04 07:08:34;;;;;;;89.57;53.67;;;6.10;92.10;;;;;;4963161;28;20034;-66
2021/03/04 07:11:05;;;;;;;179.63;93.65;;;6.20;92.30;;;;;;4964377;28;20020;-70
2021/03/04 07:13:33;;;;;;;104.65;57.53;;;6.40;92.40;;;;;;4963346;28;20023;-69
2021/03/04 07:16:19;;;;;;;106.80;60.42;;;6.50;92.00;;;;;;4961074;28;20031;-70
2021/03/04 07:18:55;;;;;;;141.98;68.85;;;6.60;90.20;;;;;;4960798;28;20054;-69
2021/03/04 07:21:29;;;;;;;133.13;68.18;;;6.70;89.10;;;;;;4959936;28;20027;-72
2021/03/04 07:23:55;;;;;;;125.95;64.32;;;6.90;87.90;;;;;;4961618;29;20058;-71
2021/03/04 07:26:21;;;;;;;81.78;45.33;;;7.00;88.00;;;;;;4963000;28;20031;-69
2021/03/04 07:28:48;;;;;;;118.18;63.10;;;7.20;89.80;;;;;;4963124;28;20066;-74
2021/03/04 07:31:15;;;;;;;107.43;53.95;;;7.40;87.70;;;;;;4963766;28;20030;-75
2021/03/04 07:33:47;;;;;;;103.05;54.33;;;7.60;89.20;;;;;;4960670;28;20010;-69
2021/03/04 07:36:18;;;;;;;103.95;54.17;;;7.90;86.60;;;;;;4962107;29;20465;-70
2021/03/04 07:39:02;;;;;;;155.80;87.70;;;8.00;84.80;;;;;;4960494;29;20031;-74
2021/03/04 07:41:38;;;;;;;163.45;85.35;;;8.20;83.90;;;;;;4961575;29;20051;-68
2021/03/04 07:44:23;;;;;;;127.15;69.07;;;8.30;82.80;;;;;;4960465;28;20094;-71
2021/03/04 07:47:03;;;;;;;140.88;79.53;;;8.50;82.80;;;;;;4961537;28;20055;-75
2021/03/04 07:49:33;;;;;;;120.15;63.67;;;8.70;83.20;;;;;;4963174;28;20023;-67
2021/03/04 07:52:11;;;;;;;81.40;46.90;;;8.70;82.20;;;;;;4965848;29;20055;-71
2021/03/04 07:54:38;;;;;;;51.05;32.97;;;8.70;83.40;;;;;;4961994;29;20070;-69
2021/03/04 07:57:06;;;;;;;55.97;35.53;;;8.80;82.50;;;;;;4957600;28;20102;-73
2021/03/04 07:59:32;;;;;;;62.13;39.28;;;9.00;83.30;;;;;;4956725;28;20019;-70
2021/03/04 08:02:00;;;;;;;52.00;33.63;;;9.20;82.90;;;;;;4959359;29;20034;-73
2021/03/04 08:04:28;;;;;;;58.42;33.45;;;9.40;81.80;;;;;;4959772;28;20028;-66
2021/03/04 08:06:55;;;;;;;97.50;61.50;;;9.60;83.50;;;;;;4957019;29;20074;-75
2021/03/04 08:09:25;;;;;;;63.58;37.35;;;9.70;81.70;;;;;;4957965;28;20035;-68
2021/03/04 08:12:02;;;;;;;55.03;34.80;;;10.00;81.10;;;;;;4961601;28;20025;-72
2021/03/04 08:14:28;;;;;;;50.95;32.22;;;10.10;77.20;;;;;;4965006;28;20612;-68
2021/03/04 08:16:54;;;;;;;65.32;38.05;;;10.10;74.90;;;;;;4963617;28;20098;-68
2021/03/04 08:19:26;;;;;;;68.43;39.10;;;10.30;75.90;;;;;;4965933;28;20015;-67
2021/03/04 08:22:05;;;;;;;61.75;36.13;;;10.60;78.20;;;;;;4965041;28;20118;-75
2021/03/04 08:24:33;;;;;;;48.50;31.73;;;10.80;77.80;;;;;;4966399;28;20496;-68
2021/03/04 08:26:59;;;;;;;54.15;39.05;;;10.70;75.80;;;;;;4963770;28;20038;-67
2021/03/04 08:29:26;;;;;;;37.47;25.00;;;10.70;76.30;;;;;;4975381;28;20026;-70
2021/03/04 08:31:55;;;;;;;50.40;33.45;;;10.70;74.70;;;;;;4980272;28;20027;-74
2021/03/04 08:34:22;;;;;;;53.13;31.13;;;11.00;75.40;;;;;;4981495;28;20388;-67
2021/03/04 08:36:50;;;;;;;54.88;34.50;;;11.50;75.30;;;;;;4981246;28;20109;-69
2021/03/04 08:39:19;;;;;;;46.45;31.50;;;11.60;77.00;;;;;;4978577;28;20536;-67
2021/03/04 08:41:45;;;;;;;40.92;27.90;;;12.00;73.60;;;;;;4978439;28;20532;-69
2021/03/04 08:44:14;;;;;;;56.20;36.67;;;12.20;72.00;;;;;;4979924;28;20101;-69
2021/03/04 08:46:42;;;;;;;42.78;27.55;;;12.40;71.50;;;;;;4976733;28;20519;-68
2021/03/04 08:49:08;;;;;;;56.10;34.33;;;12.60;67.80;;;;;;4975819;28;20066;-68
2021/03/04 08:51:44;;;;;;;59.00;43.85;;;13.00;67.80;;;;;;4980294;28;20046;-69
2021/03/04 08:54:23;;;;;;;111.00;71.38;;;13.10;64.10;;;;;;4976490;28;20019;-67
2021/03/04 08:56:57;;;;;;;47.35;31.30;;;13.10;62.20;;;;;;4971483;28;20045;-68
2021/03/04 08:59:26;;;;;;;54.60;35.53;;;13.10;65.10;;;;;;4978783;28;20045;-68
2021/03/04 09:01:53;;;;;;;43.72;25.52;;;13.00;62.60;;;;;;4979566;28;20038;-73
2021/03/04 09:04:20;;;;;;;48.45;29.95;;;13.20;65.90;;;;;;4969291;28;20027;-69
2021/03/04 09:06:46;;;;;;;46.33;28.38;;;13.40;64.50;;;;;;4961318;28;20551;-73
2021/03/04 09:09:29;;;;;;;39.00;26.10;;;13.50;61.00;;;;;;4962058;28;20079;-75
2021/03/04 09:11:56;;;;;;;46.60;30.15;;;13.90;59.60;;;;;;4964601;28;20478;-68
2021/03/04 09:14:40;;;;;;;42.03;26.55;;;14.00;60.10;;;;;;4964830;28;20374;-74
2021/03/04 09:17:09;;;;;;;48.72;33.85;;;13.90;56.90;;;;;;4964422;28;20378;-76
2021/03/04 09:19:39;;;;;;;33.72;24.15;;;14.20;58.60;;;;;;4963129;29;20054;-69
2021/03/04 09:22:09;;;;;;;31.02;23.45;;;14.30;56.20;;;;;;4962289;28;20055;-77
2021/03/04 09:24:38;;;;;;;23.23;16.23;;;14.60;57.00;;;;;;4961626;28;20023;-77
2021/03/04 09:27:05;;;;;;;23.23;16.23;;;14.80;55.00;;;;;;4965789;28;20110;-73
2021/03/04 09:29:33;;;;;;;21.80;16.05;;;15.40;54.00;;;;;;4963795;28;20055;-76
2021/03/04 09:31:59;;;;;;;24.88;16.92;;;15.50;51.20;;;;;;4964232;28;20023;-77
2021/03/04 09:34:43;;;;;;;21.75;15.82;;;15.70;51.60;;;;;;4967122;28;19999;-69
2021/03/04 09:37:14;;;;;;;24.52;17.35;;;16.20;52.70;;;;;;4965151;29;20027;-78
2021/03/04 09:39:44;;;;;;;23.20;16.33;;;16.50;50.60;;;;;;4963980;28;20441;-70
2021/03/04 09:42:15;;;;;;;23.80;16.83;;;16.80;49.70;;;;;;4964920;28;20093;-69
2021/03/04 09:44:53;;;;;;;15.80;11.65;;;17.00;49.10;;;;;;4962931;28;20026;-76
2021/03/04 09:47:25;;;;;;;17.20;12.50;;;16.50;45.50;;;;;;4965664;28;20039;-73
2021/03/04 09:49:51;;;;;;;19.90;12.57;;;16.60;46.00;;;;;;4960632;28;20054;-69
2021/03/04 09:52:19;;;;;;;16.48;10.75;;;16.80;46.70;;;;;;4962937;28;20161;-76
2021/03/04 09:54:45;;;;;;;17.98;13.02;;;17.20;47.10;;;;;;4959248;28;20100;-69
2021/03/04 09:57:17;;;;;;;17.10;12.02;;;17.30;40.40;;;;;;4962319;29;20078;-76
2021/03/04 09:59:53;;;;;;;17.83;12.65;;;17.40;45.70;;;;;;4962886;29;20566;-76
2021/03/04 10:02:20;;;;;;;20.30;11.68;;;;;;;;;;4961741;28;20033;-72
2021/03/04 10:05:03;;;;;;;22.98;13.20;;;17.60;43.30;;;;;;4962809;28;20481;-70
2021/03/04 10:07:31;;;;;;;19.92;13.57;;;17.60;43.60;;;;;;4961860;29;20039;-68
2021/03/04 10:09:58;;;;;;;21.00;14.93;;;18.30;44.00;;;;;;4962314;28;20026;-74
2021/03/04 10:12:24;;;;;;;19.20;11.98;;;18.70;43.30;;;;;;4962962;28;20027;-70
2021/03/04 10:14:53;;;;;;;16.42;12.00;;;18.10;39.60;;;;;;4962578;28;20334;-67
2021/03/04 10:17:19;;;;;;;20.02;14.20;;;18.20;42.60;;;;;;4965615;28;21477;-68
2021/03/04 10:19:46;;;;;;;23.85;16.85;;;18.40;40.30;;;;;;4968774;28;20417;-68
2021/03/04 10:22:12;;;;;;;21.20;15.23;;;18.40;40.80;;;;;;4964334;28;20024;-74
2021/03/04 10:24:39;;;;;;;18.45;12.32;;;18.90;39.00;;;;;;4967143;28;20492;-78
2021/03/04 10:27:06;;;;;;;20.23;13.88;;;18.90;41.20;;;;;;4977129;28;20035;-70
2021/03/04 10:29:33;;;;;;;21.20;13.00;;;19.30;39.10;;;;;;4985229;28;20058;-68
2021/03/04 10:31:59;;;;;;;15.75;11.93;;;19.20;39.10;;;;;;4983188;28;20011;-77
2021/03/04 10:34:25;;;;;;;12.43;9.63;;;19.30;37.60;;;;;;4982021;28;20050;-77
2021/03/04 10:36:51;;;;;;;40.42;32.30;;;18.90;35.30;;;;;;4983335;28;20066;-77
2021/03/04 10:39:19;;;;;;;21.00;14.23;;;18.90;35.50;;;;;;4982050;28;20015;-69
2021/03/04 10:41:45;;;;;;;16.13;11.68;;;18.90;37.30;;;;;;4985245;28;20031;-69
2021/03/04 10:44:13;;;;;;;21.92;19.52;;;19.00;36.20;;;;;;4978217;28;20169;-69
2021/03/04 10:46:40;;;;;;;19.17;12.07;;;19.20;36.90;;;;;;4982273;28;20046;-75
2021/03/04 10:49:06;;;;;;;19.85;11.80;;;19.10;38.10;;;;;;4984155;28;20022;-76
2021/03/04 10:51:34;;;;;;;14.20;10.63;;;18.90;36.80;;;;;;4982868;28;20034;-73
2021/03/04 10:54:00;;;;;;;16.83;13.52;;;19.10;34.40;;;;;;4962275;28;20023;-69
2021/03/04 10:56:26;;;;;;;18.50;11.48;;;19.50;36.70;;;;;;4967151;28;20350;-68
2021/03/04 10:58:52;;;;;;;22.05;15.05;;;19.60;32.80;;;;;;4966809;28;20444;-74
2021/03/04 11:01:18;;;;;;;14.35;9.40;;;20.20;34.10;;;;;;4973216;28;20027;-69
2021/03/04 11:03:44;;;;;;;17.75;11.25;;;19.90;33.40;;;;;;4983329;28;20026;-75
2021/03/04 11:06:13;;;;;;;18.15;12.75;;;19.40;34.30;;;;;;4980820;28;20045;-72
2021/03/04 11:08:39;;;;;;;37.20;23.48;;;19.90;36.90;;;;;;4981714;28;20027;-76
2021/03/04 11:11:05;;;;;;;16.48;11.00;;;19.90;34.10;;;;;;4980793;28;20049;-68
2021/03/04 11:13:31;;;;;;;18.75;11.82;;;20.20;36.50;;;;;;4984132;28;20034;-69
2021/03/04 11:15:57;;;;;;;16.45;11.25;;;20.80;35.80;;;;;;4983659;28;20096;-75
2021/03/04 11:18:24;;;;;;;15.48;11.52;;;20.20;31.50;;;;;;4979756;28;20031;-69
2021/03/04 11:20:50;;;;;;;49.78;31.10;;;20.20;35.10;;;;;;4979636;28;20070;-71
2021/03/04 11:23:16;;;;;;;37.17;21.70;;;20.10;35.30;;;;;;4981935;28;20105;-69
2021/03/04 11:25:42;;;;;;;28.45;17.25;;;20.50;34.20;;;;;;4978368;28;20461;-75
2021/03/04 11:28:08;;;;;;;31.40;20.85;;;21.00;33.20;;;;;;4981805;28;20381;-75
2021/03/04 11:30:35;;;;;;;21.25;15.48;;;20.50;33.10;;;;;;4979903;28;20022;-76
2021/03/04 11:33:04;;;;;;;19.15;14.88;;;20.20;34.40;;;;;;4980985;28;20023;-71
2021/03/04 11:35:30;;;;;;;33.17;22.92;;;21.00;32.80;;;;;;4978938;28;20023;-71
2021/03/04 11:37:56;;;;;;;26.77;16.83;;;21.10;34.00;;;;;;4978404;28;20042;-70
2021/03/04 11:40:23;;;;;;;20.15;15.15;;;21.00;34.40;;;;;;4981307;28;20023;-70
2021/03/04 11:42:49;;;;;;;18.33;12.50;;;20.90;33.50;;;;;;4981676;28;20027;-76
2021/03/04 11:45:16;;;;;;;24.08;15.88;;;20.90;33.60;;;;;;4979973;28;20055;-74
2021/03/04 11:47:42;;;;;;;22.95;14.48;;;21.10;34.60;;;;;;4981767;28;20070;-75
2021/03/04 11:50:09;;;;;;;28.75;19.98;;;21.00;31.20;;;;;;4980434;28;20074;-76
2021/03/04 11:52:35;;;;;;;24.00;17.35;;;21.20;32.50;;;;;;4982331;28;20369;-76
2021/03/04 11:55:02;;;;;;;40.17;26.10;;;21.60;33.90;;;;;;4981177;28;20439;-70
2021/03/04 11:57:28;;;;;;;35.75;24.00;;;21.40;32.50;;;;;;4984894;28;20030;-71
2021/03/04 11:59:55;;;;;;;30.75;19.00;;;21.50;29.90;;;;;;4982861;28;20070;-75
2021/03/04 12:02:21;;;;;;;91.97;58.22;;;21.00;32.80;;;;;;4983823;28;20465;-69
2021/03/04 12:04:47;;;;;;;21.70;14.15;;;21.40;30.90;;;;;;4983957;28;20081;-71
2021/03/04 12:07:12;;;;;;;16.85;11.90;;;21.80;34.80;;;;;;4982738;28;20027;-76
2021/03/04 12:09:38;;;;;;;14.32;9.30;;;21.80;30.20;;;;;;4983256;28;20014;-70
2021/03/04 12:12:05;;;;;;;44.30;25.83;;;21.90;31.70;;;;;;4981592;28;20054;-76
2021/03/04 12:14:30;;;;;;;28.55;17.85;;;21.60;30.70;;;;;;4982023;28;20019;-69
2021/03/04 12:16:56;;;;;;;24.77;14.77;;;21.40;29.00;;;;;;4983880;28;20014;-72
2021/03/04 12:19:22;;;;;;;22.83;13.95;;;21.30;32.00;;;;;;4979862;28;20101;-74
2021/03/04 12:21:48;;;;;;;33.42;20.48;;;21.60;29.40;;;;;;4981794;28;20038;-70
2021/03/04 12:24:14;;;;;;;88.28;47.13;;;21.50;29.20;;;;;;4981561;28;20377;-75
2021/03/04 12:26:40;;;;;;;110.57;52.40;;;21.80;29.00;;;;;;4982336;28;20046;-70
2021/03/04 12:29:06;;;;;;;22.13;13.35;;;22.40;30.90;;;;;;4983614;28;20368;-76
2021/03/04 12:31:32;;;;;;;14.57;10.30;;;22.00;29.00;;;;;;4983400;28;20030;-74
2021/03/04 12:33:58;;;;;;;17.23;9.77;;;21.70;29.20;;;;;;4982248;28;20484;-70